Time;durP1;ratioP1;P1;durP2;ratioP2;P2;SDS_P1;SDS_P2;PMS_P1;PMS_P2;Temp;Humidity;BMP_temperature;BMP_pressure;BME280_temperature;BME280_humidity;BME280_pressure;Samples;Min_cycle;Max_cycle;Signal;HPM_P1;HPM_P2
2023/07/09 00:02:14;;;;;;;7.60;4.00;;;;;;;;;;5088180;27;20551;-60
2023/07/09 00:04:40;;;;;;;7.75;3.90;;;;;;;;;;5089452;27;20054;-60
2023/07/09 00:07:26;;;;;;;6.70;4.28;;;;;;;;;;5093529;27;20033;-60
2023/07/09 00:09:54;;;;;;;7.60;3.80;;;;;;;;;;5088699;27;20036;-60
2023/07/09 00:12:20;;;;;;;8.02;3.45;;;;;;;;;;5088832;27;20112;-60
2023/07/09 00:14:46;;;;;;;6.13;4.00;;;;;;;;;;5088599;27;20117;-60
2023/07/09 00:17:19;;;;;;;9.70;4.50;;;;;;;;;;5089158;27;20047;-60
2023/07/09 00:19:45;;;;;;;5.47;3.92;;;;;;;;;;5087038;27;20518;-60
2023/07/09 00:22:16;;;;;;;9.80;4.47;;;;;;;;;;5088983;27;20036;-60
2023/07/09 00:24:44;;;;;;;7.15;4.07;;;;;;;;;;5088574;27;20040;-60
2023/07/09 00:27:10;;;;;;;5.53;3.88;;;;;;;;;;5086987;27;20044;-60
2023/07/09 00:29:36;;;;;;;6.43;4.40;;;;;;;;;;5092737;27;20044;-60
2023/07/09 00:32:02;;;;;;;8.95;4.70;;;;;;;;;;5086931;27;20036;-60
2023/07/09 00:34:28;;;;;;;7.55;4.47;;;;;;;;;;5088748;27;20036;-60
2023/07/09 00:36:55;;;;;;;7.30;4.30;;;;;;;;;;5088343;27;20040;-61
2023/07/09 00:39:21;;;;;;;6.57;4.95;;;;;;;;;;5088910;27;20037;-60
2023/07/09 00:41:48;;;;;;;9.20;6.07;;;;;;;;;;5089110;28;20567;-61
2023/07/09 00:44:17;;;;;;;6.80;4.90;;;;;;;;;;5090984;27;20044;-60
2023/07/09 00:46:49;;;;;;;6.88;4.28;;;;;;;;;;5092073;27;21104;-60
2023/07/09 00:49:27;;;;;;;7.68;5.70;;;;;;;;;;5092380;27;20032;-60
2023/07/09 00:51:53;;;;;;;6.20;4.32;;;;;;;;;;5093138;27;20043;-60
2023/07/09 00:54:22;;;;;;;8.95;5.22;;;;;;;;;;5092320;27;20067;-60
2023/07/09 00:56:51;;;;;;;11.93;5.15;;;;;;;;;;5091826;27;20044;-61
2023/07/09 00:59:18;;;;;;;7.22;4.55;;;;;;;;;;5091963;27;20040;-60
2023/07/09 01:01:47;;;;;;;15.63;5.45;;;;;;;;;;5091718;27;20040;-60
2023/07/09 01:04:16;;;;;;;6.78;4.70;;;;;;;;;;5091863;27;20489;-60
2023/07/09 01:06:45;;;;;;;8.48;5.20;;;;;;;;;;5092045;27;20047;-60
2023/07/09 01:09:11;;;;;;;7.95;4.22;;;;;;;;;;5092009;27;20072;-60
2023/07/09 01:11:38;;;;;;;7.25;4.60;;;;;;;;;;5092103;27;20038;-61
2023/07/09 01:14:05;;;;;;;8.32;5.30;;;;;;;;;;5091025;27;20638;-60
2023/07/09 01:16:34;;;;;;;5.65;4.75;;;;;;;;;;5090995;27;20124;-60
2023/07/09 01:19:00;;;;;;;8.25;5.32;;;;;;;;;;5091514;27;20071;-60
2023/07/09 01:21:27;;;;;;;7.93;4.70;;;;;;;;;;5092128;27;20067;-60
2023/07/09 01:23:54;;;;;;;7.35;4.65;;;;;;;;;;5090413;27;20127;-60
2023/07/09 01:26:21;;;;;;;10.27;5.60;;;;;;;;;;5091473;27;20052;-60
2023/07/09 01:28:48;;;;;;;7.35;5.07;;;;;;;;;;5090256;27;20040;-60
2023/07/09 01:31:15;;;;;;;8.35;5.57;;;;;;;;;;5090903;27;20052;-60
2023/07/09 01:33:44;;;;;;;6.50;5.13;;;;;;;;;;5091472;27;20044;-60
2023/07/09 01:36:13;;;;;;;7.50;4.55;;;;;;;;;;5091663;27;20097;-60
2023/07/09 01:38:39;;;;;;;8.52;5.32;;;;;;;;;;5091353;27;20032;-60
2023/07/09 01:41:05;;;;;;;8.18;5.35;;;;;;;;;;5091379;27;20036;-60
2023/07/09 01:43:32;;;;;;;8.30;5.38;;;;;;;;;;5095116;27;20036;-60
2023/07/09 01:45:58;;;;;;;6.47;4.80;;;;;;;;;;5090696;27;20036;-60
2023/07/09 01:48:25;;;;;;;9.57;5.28;;;;;;;;;;5090453;27;20048;-60
2023/07/09 01:50:52;;;;;;;6.65;5.38;;;;;;;;;;5092563;27;20043;-60
2023/07/09 01:53:20;;;;;;;8.95;5.28;;;;;;;;;;5091201;27;20063;-60
2023/07/09 01:55:46;;;;;;;8.63;6.63;;;;;;;;;;5091959;27;20101;-60
2023/07/09 01:58:12;;;;;;;10.82;6.13;;;;;;;;;;5089825;27;20774;-60
2023/07/09 02:00:41;;;;;;;8.55;6.38;;;;;;;;;;5092320;27;20040;-60
2023/07/09 02:03:07;;;;;;;7.45;4.35;;;;;;;;;;5090492;27;20040;-60
2023/07/09 02:05:34;;;;;;;9.40;5.57;;;;;;;;;;5087412;28;20052;-60
2023/07/09 02:08:00;;;;;;;9.00;6.32;;;;;;;;;;5090682;27;20043;-60
2023/07/09 02:10:26;;;;;;;11.27;5.70;;;;;;;;;;5091252;27;20054;-60
2023/07/09 02:12:52;;;;;;;10.18;6.05;;;;;;;;;;5090524;27;20162;-60
2023/07/09 02:15:18;;;;;;;7.70;4.72;;;;;;;;;;5095839;27;20138;-60
2023/07/09 02:17:45;;;;;;;11.80;6.43;;;;;;;;;;5090021;27;20130;-60
2023/07/09 02:20:11;;;;;;;12.68;5.55;;;;;;;;;;5087267;28;20047;-60
2023/07/09 02:22:38;;;;;;;7.75;5.63;;;;;;;;;;5090349;27;20082;-60
2023/07/09 02:25:05;;;;;;;8.48;5.90;;;;;;;;;;5090340;27;20097;-60
2023/07/09 02:27:32;;;;;;;8.13;5.63;;;;;;;;;;5089784;27;20095;-60
2023/07/09 02:29:58;;;;;;;7.25;5.18;;;;;;;;;;5090429;27;20090;-60
2023/07/09 02:32:28;;;;;;;9.10;5.75;;;;;;;;;;5079186;28;20040;-60
2023/07/09 02:34:54;;;;;;;8.20;5.32;;;;;;;;;;5090260;27;20122;-60
2023/07/09 02:37:22;;;;;;;10.20;5.15;;;;;;;;;;5089720;27;20514;-60
2023/07/09 02:39:48;;;;;;;8.60;5.03;;;;;;;;;;5090437;27;20047;-60
2023/07/09 02:42:15;;;;;;;11.23;4.80;;;;;;;;;;5089365;27;20044;-60
2023/07/09 02:44:41;;;;;;;10.77;5.32;;;;;;;;;;5090604;27;20127;-60
2023/07/09 02:47:08;;;;;;;9.57;5.60;;;;;;;;;;5090658;27;20701;-60
2023/07/09 02:49:34;;;;;;;7.63;4.97;;;;;;;;;;5090385;27;20041;-60
2023/07/09 02:52:00;;;;;;;7.22;4.47;;;;;;;;;;5088209;27;20502;-60
2023/07/09 02:54:26;;;;;;;8.52;4.30;;;;;;;;;;5089870;27;20512;-60
2023/07/09 02:56:52;;;;;;;6.53;3.85;;;;;;;;;;5090388;27;20566;-60
2023/07/09 02:59:18;;;;;;;6.50;4.75;;;;;;;;;;5089760;27;20040;-60
2023/07/09 03:01:44;;;;;;;7.72;3.88;;;;;;;;;;5090662;27;20109;-60
2023/07/09 03:04:11;;;;;;;7.43;3.83;;;;;;;;;;5090540;27;20144;-60
2023/07/09 03:06:38;;;;;;;7.40;4.05;;;;;;;;;;5089668;27;20032;-60
2023/07/09 03:09:04;;;;;;;7.35;4.78;;;;;;;;;;5089422;27;20044;-60
2023/07/09 03:11:31;;;;;;;10.02;4.63;;;;;;;;;;5090713;27;20032;-60
2023/07/09 03:13:58;;;;;;;9.48;4.95;;;;;;;;;;5088366;27;20048;-60
2023/07/09 03:16:24;;;;;;;9.40;4.70;;;;;;;;;;5090231;27;20564;-60
2023/07/09 03:18:50;;;;;;;12.30;5.95;;;;;;;;;;5077529;27;20040;-60
2023/07/09 03:21:16;;;;;;;8.07;5.57;;;;;;;;;;5088702;27;20037;-60
2023/07/09 03:23:42;;;;;;;9.35;5.07;;;;;;;;;;5088537;27;20051;-60
2023/07/09 03:26:08;;;;;;;7.35;5.65;;;;;;;;;;5094679;27;20175;-60
2023/07/09 03:28:34;;;;;;;6.93;4.68;;;;;;;;;;5084832;27;20036;-60
2023/07/09 03:31:01;;;;;;;8.73;4.82;;;;;;;;;;5089363;27;20051;-60
2023/07/09 03:33:27;;;;;;;8.70;5.55;;;;;;;;;;5090243;27;20036;-60
2023/07/09 03:35:53;;;;;;;7.65;4.65;;;;;;;;;;5089740;27;20093;-60
2023/07/09 03:38:19;;;;;;;11.82;6.20;;;;;;;;;;5089725;27;20127;-60
2023/07/09 03:40:46;;;;;;;10.23;5.85;;;;;;;;;;5089920;27;20079;-60
2023/07/09 03:43:12;;;;;;;8.27;5.25;;;;;;;;;;5090771;27;20528;-60
2023/07/09 03:45:38;;;;;;;10.07;5.10;;;;;;;;;;5089909;27;20522;-60
2023/07/09 03:48:05;;;;;;;12.38;5.95;;;;;;;;;;5088425;27;20050;-60
2023/07/09 03:50:31;;;;;;;7.47;4.95;;;;;;;;;;5090461;27;20405;-60
2023/07/09 03:52:57;;;;;;;8.55;5.88;;;;;;;;;;5088987;27;20044;-60
2023/07/09 03:55:26;;;;;;;9.20;5.68;;;;;;;;;;5089991;27;20105;-60
2023/07/09 03:57:52;;;;;;;8.40;4.32;;;;;;;;;;5089743;27;20510;-60
2023/07/09 04:00:18;;;;;;;9.00;5.20;;;;;;;;;;5089348;27;20721;-60
2023/07/09 04:02:45;;;;;;;10.23;5.03;;;;;;;;;;5089057;27;20479;-60
2023/07/09 04:05:11;;;;;;;9.30;4.82;;;;;;;;;;5088684;27;20053;-60
2023/07/09 04:07:37;;;;;;;8.38;5.30;;;;;;;;;;5090001;27;20044;-60
2023/07/09 04:10:04;;;;;;;10.52;5.35;;;;;;;;;;5089190;27;20036;-60
2023/07/09 04:12:30;;;;;;;6.47;5.07;;;;;;;;;;5089382;27;20158;-60
2023/07/09 04:14:56;;;;;;;11.65;5.95;;;;;;;;;;5089204;27;20051;-60
2023/07/09 04:17:23;;;;;;;6.88;4.80;;;;;;;;;;5085423;27;20083;-60
2023/07/09 04:19:50;;;;;;;10.95;5.88;;;;;;;;;;5092511;27;20653;-60
2023/07/09 04:22:16;;;;;;;6.65;5.05;;;;;;;;;;5092311;27;20045;-60
2023/07/09 04:24:42;;;;;;;7.18;5.10;;;;;;;;;;5089403;28;20093;-60
2023/07/09 04:27:08;;;;;;;13.93;6.50;;;;;;;;;;5091557;27;20487;-60
2023/07/09 04:29:35;;;;;;;10.32;4.90;;;;;;;;;;5091777;27;20105;-60
2023/07/09 04:32:02;;;;;;;10.88;5.80;;;;;;;;;;5092996;27;20056;-60
2023/07/09 04:34:28;;;;;;;11.48;5.22;;;;;;;;;;5092132;27;20036;-60
2023/07/09 04:36:54;;;;;;;10.02;5.38;;;;;;;;;;5092775;27;20119;-60
2023/07/09 04:39:20;;;;;;;10.63;5.57;;;;;;;;;;5092115;27;20122;-60
2023/07/09 04:41:46;;;;;;;8.80;4.55;;;;;;;;;;5092600;27;20535;-60
2023/07/09 04:44:12;;;;;;;7.85;5.22;;;;;;;;;;5091189;27;20044;-60
2023/07/09 04:46:39;;;;;;;11.73;4.88;;;;;;;;;;5092602;27;20067;-60
2023/07/09 04:49:05;;;;;;;9.25;5.45;;;;;;;;;;5096652;27;20041;-60
2023/07/09 04:51:31;;;;;;;7.55;4.97;;;;;;;;;;5092409;27;20819;-60
2023/07/09 04:53:57;;;;;;;6.97;4.78;;;;;;;;;;5092601;27;20519;-60
2023/07/09 04:56:23;;;;;;;10.05;4.57;;;;;;;;;;5092105;27;20045;-60
2023/07/09 04:58:50;;;;;;;6.05;4.13;;;;;;;;;;5091306;27;20052;-60
2023/07/09 05:01:16;;;;;;;7.75;4.10;;;;;;;;;;5091793;27;20783;-60
2023/07/09 05:03:42;;;;;;;7.70;4.82;;;;;;;;;;5091907;27;20056;-60
2023/07/09 05:06:08;;;;;;;9.07;5.82;;;;;;;;;;5097425;27;20036;-60
2023/07/09 05:08:34;;;;;;;6.78;4.40;;;;;;;;;;5092145;27;20040;-60
2023/07/09 05:11:00;;;;;;;7.85;4.80;;;;;;;;;;5091442;27;20503;-60
2023/07/09 05:13:27;;;;;;;9.05;4.43;;;;;;;;;;5091577;27;20040;-60
2023/07/09 05:15:53;;;;;;;9.50;4.65;;;;;;;;;;5092047;27;20067;-60
2023/07/09 05:18:19;;;;;;;6.88;4.28;;;;;;;;;;5091893;27;20047;-60
2023/07/09 05:20:46;;;;;;;9.38;4.38;;;;;;;;;;5091266;27;20039;-60
2023/07/09 05:23:12;;;;;;;8.48;4.68;;;;;;;;;;5091420;27;20490;-60
2023/07/09 05:25:38;;;;;;;11.38;5.55;;;;;;;;;;5091731;27;20083;-60
2023/07/09 05:28:05;;;;;;;7.00;3.88;;;;;;;;;;5090451;27;20059;-60
2023/07/09 05:30:31;;;;;;;8.20;4.85;;;;;;;;;;5090363;27;20769;-60
2023/07/09 05:32:57;;;;;;;7.32;4.40;;;;;;;;;;5073950;28;20049;-60
2023/07/09 05:35:26;;;;;;;9.45;3.92;;;;;;;;;;5090382;27;20127;-60
2023/07/09 05:37:55;;;;;;;9.00;4.53;;;;;;;;;;5091546;27;20055;-60
2023/07/09 05:40:21;;;;;;;9.27;5.50;;;;;;;;;;5074740;27;20116;-60
2023/07/09 05:42:48;;;;;;;8.85;5.35;;;;;;;;;;5091049;27;20092;-60
2023/07/09 05:45:15;;;;;;;6.03;4.43;;;;;;;;;;5090607;27;20040;-60
2023/07/09 05:47:41;;;;;;;6.07;3.63;;;;;;;;;;5091182;27;20221;-60
2023/07/09 05:50:07;;;;;;;7.28;4.10;;;;;;;;;;5090703;27;20044;-60
2023/07/09 05:52:33;;;;;;;6.13;4.45;;;;;;;;;;5091179;27;20119;-60
2023/07/09 05:55:00;;;;;;;9.35;4.70;;;;;;;;;;5090097;27;20063;-60
2023/07/09 05:57:26;;;;;;;7.72;4.90;;;;;;;;;;5091662;27;20505;-60
2023/07/09 05:59:52;;;;;;;7.38;4.63;;;;;;;;;;5089601;27;20040;-60
2023/07/09 06:02:19;;;;;;;5.65;4.30;;;;;;;;;;5078148;28;20126;-60
2023/07/09 06:04:46;;;;;;;7.68;4.28;;;;;;;;;;5088865;27;20040;-61
2023/07/09 06:07:13;;;;;;;8.43;4.28;;;;;;;;;;5090749;27;20538;-60
2023/07/09 06:09:39;;;;;;;6.97;4.50;;;;;;;;;;5090302;27;20532;-60
2023/07/09 06:12:06;;;;;;;6.90;4.95;;;;;;;;;;5090757;27;20036;-60
2023/07/09 06:14:32;;;;;;;6.78;4.10;;;;;;;;;;5090116;27;20125;-61
2023/07/09 06:16:58;;;;;;;8.20;4.32;;;;;;;;;;5091438;27;20048;-60
2023/07/09 06:19:25;;;;;;;10.70;4.40;;;;;;;;;;5089833;27;20075;-60
2023/07/09 06:21:51;;;;;;;7.95;4.70;;;;;;;;;;5090952;27;20105;-61
2023/07/09 06:24:17;;;;;;;10.32;4.35;;;;;;;;;;5090135;27;20032;-60
2023/07/09 06:26:43;;;;;;;6.22;4.30;;;;;;;;;;5091469;27;20079;-60
2023/07/09 06:29:09;;;;;;;7.93;4.63;;;;;;;;;;5090374;27;20118;-60
2023/07/09 06:31:37;;;;;;;7.22;4.40;;;;;;;;;;5091003;27;20043;-60
2023/07/09 06:34:03;;;;;;;7.18;4.47;;;;;;;;;;5090011;27;20507;-60
2023/07/09 06:36:29;;;;;;;7.72;4.18;;;;;;;;;;5091391;27;20040;-60
2023/07/09 06:38:55;;;;;;;9.07;4.35;;;;;;;;;;5089825;27;20040;-60
2023/07/09 06:41:21;;;;;;;7.57;4.68;;;;;;;;;;5089770;27;20108;-60
2023/07/09 06:43:47;;;;;;;8.88;4.68;;;;;;;;;;5090404;27;20600;-60
2023/07/09 06:46:15;;;;;;;8.55;4.47;;;;;;;;;;5090546;27;20498;-60
2023/07/09 06:48:41;;;;;;;8.27;4.88;;;;;;;;;;5089636;27;20048;-60
2023/07/09 06:51:07;;;;;;;6.25;4.05;;;;;;;;;;5090403;27;20040;-60
2023/07/09 06:53:33;;;;;;;7.38;5.28;;;;;;;;;;5079127;27;20612;-60
2023/07/09 06:55:59;;;;;;;5.53;3.90;;;;;;;;;;5090892;27;20036;-60
2023/07/09 06:58:31;;;;;;;7.50;4.03;;;;;;;;;;5089879;27;20083;-60
2023/07/09 07:00:57;;;;;;;7.85;4.35;;;;;;;;;;5090697;27;20047;-60
2023/07/09 07:03:23;;;;;;;8.20;3.92;;;;;;;;;;5089466;27;20252;-60
2023/07/09 07:05:50;;;;;;;6.95;4.05;;;;;;;;;;5089627;27;20120;-60
2023/07/09 07:08:17;;;;;;;6.30;3.42;;;;;;;;;;5089191;27;20040;-60
2023/07/09 07:10:44;;;;;;;8.48;3.65;;;;;;;;;;5089264;27;20036;-60
2023/07/09 07:13:10;;;;;;;5.15;3.40;;;;;;;;;;5089078;27;20039;-60
2023/07/09 07:15:38;;;;;;;9.43;3.55;;;;;;;;;;5089392;27;20479;-60
2023/07/09 07:18:04;;;;;;;6.10;3.63;;;;;;;;;;5094246;27;20046;-60
2023/07/09 07:20:30;;;;;;;9.63;3.65;;;;;;;;;;5090222;27;20048;-60
2023/07/09 07:22:57;;;;;;;9.68;4.90;;;;;;;;;;5089392;27;20046;-60
2023/07/09 07:25:23;;;;;;;7.05;4.65;;;;;;;;;;5089453;27;20508;-60
2023/07/09 07:27:49;;;;;;;10.20;4.10;;;;;;;;;;5089795;27;20056;-60
2023/07/09 07:30:15;;;;;;;7.03;3.75;;;;;;;;;;5089609;27;20040;-60
2023/07/09 07:32:45;;;;;;;6.05;3.45;;;;;;;;;;5090250;27;20036;-60
2023/07/09 07:35:13;;;;;;;8.00;3.85;;;;;;;;;;5089833;27;20051;-60
2023/07/09 07:37:39;;;;;;;7.55;4.15;;;;;;;;;;5089399;27;20428;-60
2023/07/09 07:40:05;;;;;;;8.27;4.47;;;;;;;;;;5089439;27;20040;-60
2023/07/09 07:42:31;;;;;;;10.10;4.25;;;;;;;;;;5089292;27;20554;-60
2023/07/09 07:44:58;;;;;;;6.20;4.13;;;;;;;;;;5089192;27;20171;-60
2023/07/09 07:47:24;;;;;;;8.95;4.47;;;;;;;;;;5089213;27;20044;-60
2023/07/09 07:49:50;;;;;;;7.60;4.25;;;;;;;;;;5088749;27;20044;-60
2023/07/09 07:52:16;;;;;;;7.15;4.65;;;;;;;;;;5091329;27;20371;-60
2023/07/09 07:54:42;;;;;;;5.38;3.05;;;;;;;;;;5093269;27;20128;-60
2023/07/09 07:57:09;;;;;;;9.10;4.93;;;;;;;;;;5092797;27;20614;-60
2023/07/09 07:59:35;;;;;;;12.38;4.57;;;;;;;;;;5092340;27;20491;-60
2023/07/09 08:02:02;;;;;;;5.80;4.00;;;;;;;;;;5092481;27;20519;-60
2023/07/09 08:04:28;;;;;;;12.15;3.72;;;;;;;;;;5093108;27;20578;-60
2023/07/09 08:06:54;;;;;;;8.50;3.97;;;;;;;;;;5092968;27;20048;-60
2023/07/09 08:09:21;;;;;;;7.78;3.72;;;;;;;;;;5093144;27;20387;-60
2023/07/09 08:11:49;;;;;;;7.20;3.80;;;;;;;;;;5092031;27;20068;-60
2023/07/09 08:14:15;;;;;;;7.68;4.00;;;;;;;;;;5092844;27;20119;-60
2023/07/09 08:16:41;;;;;;;6.00;3.63;;;;;;;;;;5091986;27;20044;-60
2023/07/09 08:19:07;;;;;;;8.65;3.63;;;;;;;;;;5098182;27;20039;-60
2023/07/09 08:21:33;;;;;;;8.88;4.97;;;;;;;;;;5092505;27;20044;-60
2023/07/09 08:23:59;;;;;;;8.13;3.60;;;;;;;;;;5092566;27;20041;-60
2023/07/09 08:26:25;;;;;;;8.02;3.42;;;;;;;;;;5092858;27;20091;-60
2023/07/09 08:28:52;;;;;;;6.32;3.47;;;;;;;;;;5097542;27;20413;-60
2023/07/09 08:31:18;;;;;;;5.57;3.70;;;;;;;;;;5089378;27;20047;-60
2023/07/09 08:33:45;;;;;;;5.75;3.30;;;;;;;;;;5096831;27;20209;-60
2023/07/09 08:36:11;;;;;;;4.90;3.17;;;;;;;;;;5093251;27;20044;-60
2023/07/09 08:38:37;;;;;;;7.05;3.55;;;;;;;;;;5093392;27;20041;-60
2023/07/09 08:41:08;;;;;;;6.20;3.88;;;;;;;;;;5092747;27;20075;-60
2023/07/09 08:43:49;;;;;;;6.70;4.65;;;;;;;;;;5091567;27;20048;-60
2023/07/09 08:46:31;;;;;;;7.53;4.00;;;;;;;;;;5091931;27;20044;-60
2023/07/09 08:48:58;;;;;;;5.65;3.20;;;;;;;;;;5092861;27;20048;-60
2023/07/09 08:51:28;;;;;;;6.10;3.58;;;;;;;;;;5090860;27;20121;-60
2023/07/09 08:53:57;;;;;;;7.45;3.72;;;;;;;;;;5092305;27;20532;-60
2023/07/09 08:56:23;;;;;;;7.95;3.28;;;;;;;;;;5091986;27;20490;-60
2023/07/09 08:58:51;;;;;;;5.90;3.35;;;;;;;;;;5092009;27;20196;-60
2023/07/09 09:01:21;;;;;;;5.65;2.97;;;;;;;;;;5079491;28;20070;-60
2023/07/09 09:03:47;;;;;;;7.00;3.10;;;;;;;;;;5091630;27;20532;-60
2023/07/09 09:06:15;;;;;;;5.70;3.40;;;;;;;;;;5091063;27;20044;-60
2023/07/09 09:08:44;;;;;;;7.22;3.55;;;;;;;;;;5091801;27;20121;-60
2023/07/09 09:11:29;;;;;;;6.65;3.35;;;;;;;;;;5080643;27;20488;-60
2023/07/09 09:13:59;;;;;;;6.95;3.35;;;;;;;;;;5091709;27;20142;-60
2023/07/09 09:16:27;;;;;;;7.30;3.17;;;;;;;;;;5095774;27;20048;-60
2023/07/09 09:18:55;;;;;;;8.90;3.50;;;;;;;;;;5078679;28;20624;-60
2023/07/09 09:21:23;;;;;;;5.13;3.60;;;;;;;;;;5091918;27;20051;-60
2023/07/09 09:23:52;;;;;;;4.82;3.40;;;;;;;;;;5091086;27;20123;-60
2023/07/09 09:26:27;;;;;;;5.80;3.05;;;;;;;;;;5091672;27;20036;-60
2023/07/09 09:28:53;;;;;;;7.38;3.88;;;;;;;;;;5092153;27;20090;-60
2023/07/09 09:31:20;;;;;;;8.40;3.22;;;;;;;;;;5090997;27;20135;-60
2023/07/09 09:33:47;;;;;;;6.03;3.08;;;;;;;;;;5096213;27;20116;-60
2023/07/09 09:36:39;;;;;;;5.00;3.17;;;;;;;;;;5091418;27;20044;-60
2023/07/09 09:39:06;;;;;;;6.70;4.30;;;;;;;;;;5088889;27;20040;-60
2023/07/09 09:41:34;;;;;;;5.55;3.25;;;;;;;;;;5091681;27;20548;-60
2023/07/09 09:44:00;;;;;;;10.43;4.00;;;;;;;;;;5090844;27;20036;-60
2023/07/09 09:46:27;;;;;;;5.55;4.10;;;;;;;;;;5089645;27;20657;-60
2023/07/09 09:48:55;;;;;;;9.68;3.90;;;;;;;;;;5091336;27;20047;-61
2023/07/09 09:51:21;;;;;;;5.53;2.72;;;;;;;;;;5091138;27;20141;-60
2023/07/09 09:53:52;;;;;;;5.25;3.22;;;;;;;;;;5091123;27;20051;-60
2023/07/09 09:56:27;;;;;;;8.82;3.40;;;;;;;;;;5090735;27;20123;-61
2023/07/09 09:58:54;;;;;;;5.45;3.67;;;;;;;;;;5091158;27;20037;-60
2023/07/09 10:01:22;;;;;;;5.65;3.75;;;;;;;;;;5089564;27;20041;-60
2023/07/09 10:03:48;;;;;;;16.20;4.25;;;;;;;;;;5091406;27;20089;-60
2023/07/09 10:06:20;;;;;;;8.32;3.00;;;;;;;;;;5090297;27;20047;-60
2023/07/09 10:09:05;;;;;;;7.97;3.63;;;;;;;;;;5089608;27;20049;-60
2023/07/09 10:11:37;;;;;;;5.57;2.95;;;;;;;;;;5090809;27;20651;-60
2023/07/09 10:14:08;;;;;;;6.85;3.00;;;;;;;;;;5090259;27;20075;-60
2023/07/09 10:16:39;;;;;;;8.25;4.07;;;;;;;;;;5088920;27;20056;-60
2023/07/09 10:19:10;;;;;;;5.18;2.92;;;;;;;;;;5095175;27;20106;-60
2023/07/09 10:22:02;;;;;;;9.52;3.03;;;;;;;;;;5091322;27;20224;-60
2023/07/09 10:24:43;;;;;;;4.00;2.63;;;;;;;;;;5065078;27;20600;-60
2023/07/09 10:27:35;;;;;;;6.10;2.60;;;;;;;;;;5089841;27;20044;-60
2023/07/09 10:30:22;;;;;;;7.25;2.72;;;;;;;;;;5088167;27;20090;-60
2023/07/09 10:33:07;;;;;;;3.85;2.00;;;;;;;;;;5089687;27;20040;-60
2023/07/09 10:35:36;;;;;;;6.20;2.90;;;;;;;;;;5090346;27;20083;-60
2023/07/09 10:38:05;;;;;;;5.82;2.92;;;;;;;;;;5090366;27;20361;-60
2023/07/09 10:40:34;;;;;;;5.32;4.18;;;;;;;;;;5090146;27;20044;-60
2023/07/09 10:43:02;;;;;;;8.88;3.75;;;;;;;;;;5076889;28;20029;-60
2023/07/09 10:45:51;;;;;;;5.63;3.13;;;;;;;;;;5090216;27;20128;-60
2023/07/09 10:48:19;;;;;;;5.10;2.90;;;;;;;;;;5080078;27;20628;-60
2023/07/09 10:50:54;;;;;;;6.13;2.40;;;;;;;;;;5088983;27;20068;-60
2023/07/09 10:53:37;;;;;;;5.93;2.75;;;;;;;;;;5086309;27;20502;-60
2023/07/09 10:56:14;;;;;;;5.60;2.90;;;;;;;;;;5095740;27;20045;-60
2023/07/09 10:58:44;;;;;;;4.95;2.42;;;;;;;;;;5088581;27;20051;-60
2023/07/09 11:01:13;;;;;;;4.50;1.90;;;;;;;;;;5089638;27;20040;-60
2023/07/09 11:03:59;;;;;;;3.58;2.42;;;;;;;;;;5085755;27;20043;-61
2023/07/09 11:06:30;;;;;;;6.47;2.65;;;;;;;;;;5087438;27;20056;-61
2023/07/09 11:08:57;;;;;;;3.13;2.00;;;;;;;;;;5087503;27;20075;-60
2023/07/09 11:11:26;;;;;;;5.82;2.72;;;;;;;;;;5085271;27;20040;-60
2023/07/09 11:13:57;;;;;;;4.57;2.03;;;;;;;;;;5088005;27;20500;-60
2023/07/09 11:16:31;;;;;;;3.58;1.80;;;;;;;;;;5087964;27;20056;-60
2023/07/09 11:19:02;;;;;;;3.08;2.05;;;;;;;;;;5086798;27;20386;-60
2023/07/09 11:21:28;;;;;;;6.72;2.13;;;;;;;;;;5088508;27;20032;-60
2023/07/09 11:23:55;;;;;;;3.53;2.22;;;;;;;;;;5086192;27;20055;-60
2023/07/09 11:26:27;;;;;;;4.47;2.83;;;;;;;;;;5086858;27;20657;-61
2023/07/09 11:28:57;;;;;;;5.10;2.75;;;;;;;;;;5086321;27;20099;-60
2023/07/09 11:31:24;;;;;;;5.35;2.60;;;;;;;;;;5086186;27;20621;-60
2023/07/09 11:34:00;;;;;;;4.72;2.08;;;;;;;;;;5084063;27;20116;-60
2023/07/09 11:36:28;;;;;;;4.13;2.38;;;;;;;;;;5084954;27;20040;-60
2023/07/09 11:38:54;;;;;;;3.85;2.28;;;;;;;;;;5084938;27;20508;-60
2023/07/09 11:41:28;;;;;;;4.70;2.13;;;;;;;;;;5084338;27;20787;-60
2023/07/09 11:44:03;;;;;;;3.13;1.70;;;;;;;;;;5085038;27;20039;-60
2023/07/09 11:46:29;;;;;;;3.72;2.13;;;;;;;;;;5085107;27;20127;-60
2023/07/09 11:48:58;;;;;;;5.85;2.28;;;;;;;;;;5083615;27;20127;-60
2023/07/09 11:51:33;;;;;;;4.85;2.67;;;;;;;;;;5085031;27;20488;-60
2023/07/09 11:54:01;;;;;;;5.03;2.75;;;;;;;;;;5085436;27;20436;-60
2023/07/09 11:56:27;;;;;;;5.13;2.00;;;;;;;;;;5085086;27;20550;-60
2023/07/09 11:58:55;;;;;;;4.20;2.60;;;;;;;;;;5073752;28;20460;-59
2023/07/09 12:01:29;;;;;;;7.18;3.25;;;;;;;;;;5086592;27;20044;-59
2023/07/09 12:03:56;;;;;;;6.10;2.67;;;;;;;;;;5087230;27;20101;-59
2023/07/09 12:06:24;;;;;;;5.43;2.65;;;;;;;;;;5086783;27;20122;-60
2023/07/09 12:08:51;;;;;;;5.63;2.65;;;;;;;;;;5083629;27;20533;-60
2023/07/09 12:11:33;;;;;;;7.63;2.50;;;;;;;;;;5088242;27;20075;-60
2023/07/09 12:14:06;;;;;;;4.80;2.42;;;;;;;;;;5093269;27;20442;-60
2023/07/09 12:16:35;;;;;;;5.63;2.17;;;;;;;;;;5089156;27;20492;-60
2023/07/09 12:19:01;;;;;;;10.18;3.03;;;;;;;;;;5088760;27;20785;-60
2023/07/09 12:21:27;;;;;;;4.47;2.40;;;;;;;;;;5088976;27;20449;-60
2023/07/09 12:23:58;;;;;;;4.05;2.13;;;;;;;;;;5088406;27;20067;-60
2023/07/09 12:26:24;;;;;;;5.80;2.53;;;;;;;;;;5088354;27;20044;-60
2023/07/09 12:28:54;;;;;;;4.93;2.20;;;;;;;;;;5089049;27;20036;-60
2023/07/09 12:31:22;;;;;;;7.45;2.78;;;;;;;;;;5088836;27;20472;-60
2023/07/09 12:33:53;;;;;;;5.65;2.53;;;;;;;;;;5088595;27;20310;-59
2023/07/09 12:36:19;;;;;;;3.65;2.10;;;;;;;;;;5094053;27;20139;-60
2023/07/09 12:38:46;;;;;;;5.18;2.10;;;;;;;;;;5089034;27;20129;-60
2023/07/09 12:41:48;;;;;;;4.88;3.13;;;;;;;;;;5091462;27;20036;-59
2023/07/09 12:44:23;;;;;;;6.20;2.33;;;;;;;;;;5016567;28;20486;-60
2023/07/09 12:46:50;;;;;;;6.45;2.67;;;;;;;;;;5081145;27;20135;-60
2023/07/09 12:49:29;;;;;;;5.95;2.42;;;;;;;;;;5091145;27;20115;-60
2023/07/09 12:51:56;;;;;;;3.25;2.00;;;;;;;;;;5092022;27;20745;-60
2023/07/09 12:54:23;;;;;;;3.45;2.05;;;;;;;;;;5091908;27;20086;-60
2023/07/09 12:56:55;;;;;;;10.30;4.00;;;;;;;;;;5080172;28;20044;-60
2023/07/09 12:59:23;;;;;;;6.00;2.90;;;;;;;;;;5092374;27;20437;-60
2023/07/09 13:01:56;;;;;;;5.43;2.45;;;;;;;;;;5092309;27;20585;-60
2023/07/09 13:04:28;;;;;;;5.18;2.33;;;;;;;;;;5093021;27;20132;-60
2023/07/09 13:06:59;;;;;;;5.63;2.10;;;;;;;;;;5092083;27;20508;-60
2023/07/09 13:09:25;;;;;;;;;;;;;;;;;;5091669;27;20076;-60
2023/07/09 13:11:51;;;;;;;6.85;2.95;;;;;;;;;;5092225;27;20011;-60
2023/07/09 13:14:25;;;;;;;6.13;3.05;;;;;;;;;;5091059;27;20036;-60
2023/07/09 13:16:52;;;;;;;3.78;2.00;;;;;;;;;;5093055;27;20599;-60
2023/07/09 13:19:19;;;;;;;6.00;2.70;;;;;;;;;;5090715;27;20070;-60
2023/07/09 13:21:45;;;;;;;4.15;2.67;;;;;;;;;;5092954;27;20440;-60
2023/07/09 13:24:19;;;;;;;6.43;3.78;;;;;;;;;;5092221;27;20056;-60
2023/07/09 13:26:46;;;;;;;4.47;2.50;;;;;;;;;;5092099;27;20040;-60
2023/07/09 13:29:14;;;;;;;10.60;2.90;;;;;;;;;;5091623;27;20565;-60
2023/07/09 13:31:40;;;;;;;4.47;2.10;;;;;;;;;;5089996;27;20042;-60
2023/07/09 13:34:14;;;;;;;6.53;2.47;;;;;;;;;;5091840;27;20041;-60
2023/07/09 13:36:40;;;;;;;5.20;2.53;;;;;;;;;;5090387;27;20040;-60
2023/07/09 13:39:08;;;;;;;5.53;2.25;;;;;;;;;;5090243;27;20072;-60
2023/07/09 13:41:34;;;;;;;3.03;1.95;;;;;;;;;;5091801;27;20040;-60
2023/07/09 13:44:00;;;;;;;4.43;2.20;;;;;;;;;;5080023;28;20124;-60
2023/07/09 13:46:26;;;;;;;5.93;2.67;;;;;;;;;;5090380;27;20070;-60
2023/07/09 13:48:53;;;;;;;3.95;2.30;;;;;;;;;;5090826;27;20051;-60
2023/07/09 13:51:20;;;;;;;4.00;2.20;;;;;;;;;;5091213;27;20040;-60
2023/07/09 13:53:47;;;;;;;6.40;1.92;;;;;;;;;;5091568;27;20124;-60
2023/07/09 13:56:13;;;;;;;6.55;2.60;;;;;;;;;;5090875;27;20082;-60
2023/07/09 13:58:39;;;;;;;5.45;2.53;;;;;;;;;;5091745;27;20645;-60
2023/07/09 14:01:14;;;;;;;6.18;2.50;;;;;;;;;;5090808;27;20570;-60
2023/07/09 14:03:40;;;;;;;4.47;3.00;;;;;;;;;;5090415;27;20051;-60
2023/07/09 14:06:06;;;;;;;4.80;2.22;;;;;;;;;;5090783;27;20042;-60
2023/07/09 14:08:32;;;;;;;5.15;2.58;;;;;;;;;;5090456;27;20744;-60
2023/07/09 14:10:58;;;;;;;5.78;2.25;;;;;;;;;;5091238;27;20571;-59
2023/07/09 14:13:25;;;;;;;2.67;2.00;;;;;;;;;;5089690;27;20050;-60
2023/07/09 14:15:51;;;;;;;5.70;2.22;;;;;;;;;;5090985;27;20052;-60
2023/07/09 14:18:19;;;;;;;3.97;2.20;;;;;;;;;;5091476;27;20544;-60
2023/07/09 14:20:45;;;;;;;5.03;2.75;;;;;;;;;;5089878;27;20582;-60
2023/07/09 14:23:12;;;;;;;4.85;2.28;;;;;;;;;;5091449;27;20047;-60
2023/07/09 14:25:38;;;;;;;4.22;2.05;;;;;;;;;;5090894;27;20051;-60
2023/07/09 14:28:31;;;;;;;5.00;2.30;;;;;;;;;;5090198;27;20044;-61
2023/07/09 14:30:57;;;;;;;7.05;2.38;;;;;;;;;;5087948;27;20052;-60
2023/07/09 14:33:23;;;;;;;5.07;2.40;;;;;;;;;;5091850;27;20106;-60
2023/07/09 14:35:50;;;;;;;4.40;2.40;;;;;;;;;;5091053;27;20197;-60
2023/07/09 14:38:21;;;;;;;3.63;2.30;;;;;;;;;;5090177;27;20151;-61
2023/07/09 14:40:47;;;;;;;3.83;2.03;;;;;;;;;;5091102;27;20032;-60
2023/07/09 14:43:13;;;;;;;4.07;2.17;;;;;;;;;;5094562;27;20047;-60
2023/07/09 14:45:40;;;;;;;3.38;1.95;;;;;;;;;;5090744;27;20536;-60
2023/07/09 14:48:13;;;;;;;4.50;2.65;;;;;;;;;;5095013;27;20514;-60